sensor_id;sensor_type;location;lat;lon;timestamp;pressure;altitude;pressure_sealevel;temperature;humidity
64698;BME280;51124;53.394;-6.294;2023-05-10T00:00:00;100298.33;;;18.83;11.27
64698;BME280;51124;53.394;-6.294;2023-05-10T00:02:27;100298.82;;;18.95;11.12
64698;BME280;51124;53.394;-6.294;2023-05-10T00:04:54;100299.87;;;18.73;10.81
64698;BME280;51124;53.394;-6.294;2023-05-10T00:07:21;100303.12;;;18.95;10.68
64698;BME280;51124;53.394;-6.294;2023-05-10T00:09:49;100302.20;;;18.62;10.72
64698;BME280;51124;53.394;-6.294;2023-05-10T00:12:16;100301.84;;;18.79;10.56
64698;BME280;51124;53.394;-6.294;2023-05-10T00:14:43;100304.88;;;19.03;10.44
64698;BME280;51124;53.394;-6.294;2023-05-10T00:17:10;100304.42;;;18.77;10.56
64698;BME280;51124;53.394;-6.294;2023-05-10T00:19:38;100299.72;;;19.03;10.32
64698;BME280;51124;53.394;-6.294;2023-05-10T00:22:05;100302.50;;;19.41;10.31
64698;BME280;51124;53.394;-6.294;2023-05-10T00:24:32;100306.99;;;18.12;10.63
64698;BME280;51124;53.394;-6.294;2023-05-10T00:27:00;100307.70;;;19.27;10.19
64698;BME280;51124;53.394;-6.294;2023-05-10T00:29:27;100303.19;;;19.24;10.18
64698;BME280;51124;53.394;-6.294;2023-05-10T00:31:54;100304.91;;;18.67;10.15
64698;BME280;51124;53.394;-6.294;2023-05-10T00:34:21;100312.52;;;18.47;10.39
64698;BME280;51124;53.394;-6.294;2023-05-10T00:36:49;100310.54;;;19.39;10.06
64698;BME280;51124;53.394;-6.294;2023-05-10T00:39:16;100312.13;;;18.88;10.10
64698;BME280;51124;53.394;-6.294;2023-05-10T00:41:43;100309.81;;;18.83;10.19
64698;BME280;51124;53.394;-6.294;2023-05-10T00:44:11;100311.71;;;19.35;9.96
64698;BME280;51124;53.394;-6.294;2023-05-10T00:46:38;100312.13;;;19.37;10.01
64698;BME280;51124;53.394;-6.294;2023-05-10T00:49:05;100306.13;;;19.10;10.10
64698;BME280;51124;53.394;-6.294;2023-05-10T00:51:34;100311.15;;;19.44;9.95
64698;BME280;51124;53.394;-6.294;2023-05-10T00:54:01;100309.58;;;19.40;9.81
64698;BME280;51124;53.394;-6.294;2023-05-10T00:56:29;100310.61;;;18.85;10.05
64698;BME280;51124;53.394;-6.294;2023-05-10T00:58:56;100311.87;;;19.00;9.93
64698;BME280;51124;53.394;-6.294;2023-05-10T01:01:22;100305.85;;;18.95;9.95
64698;BME280;51124;53.394;-6.294;2023-05-10T01:03:48;100303.63;;;18.98;10.01
64698;BME280;51124;53.394;-6.294;2023-05-10T01:06:13;100305.55;;;18.84;10.06
64698;BME280;51124;53.394;-6.294;2023-05-10T01:08:38;100300.91;;;19.28;10.05
64698;BME280;51124;53.394;-6.294;2023-05-10T01:11:04;100305.41;;;18.84;10.09
64698;BME280;51124;53.394;-6.294;2023-05-10T01:13:36;100301.63;;;19.17;9.79
64698;BME280;51124;53.394;-6.294;2023-05-10T01:16:03;100299.48;;;18.99;10.02
64698;BME280;51124;53.394;-6.294;2023-05-10T01:18:32;100301.07;;;19.16;9.93
64698;BME280;51124;53.394;-6.294;2023-05-10T01:21:08;100299.53;;;19.11;9.92
64698;BME280;51124;53.394;-6.294;2023-05-10T01:23:39;100298.18;;;19.60;9.86
64698;BME280;51124;53.394;-6.294;2023-05-10T01:26:14;100294.13;;;18.69;10.26
64698;BME280;51124;53.394;-6.294;2023-05-10T01:28:45;100298.42;;;18.84;9.89
64698;BME280;51124;53.394;-6.294;2023-05-10T01:31:29;100293.29;;;18.06;10.19
64698;BME280;51124;53.394;-6.294;2023-05-10T01:33:41;100293.01;;;19.65;10.01
64698;BME280;51124;53.394;-6.294;2023-05-10T01:36:05;100291.26;;;19.12;10.01
64698;BME280;51124;53.394;-6.294;2023-05-10T01:38:41;100290.94;;;18.51;10.26
64698;BME280;51124;53.394;-6.294;2023-05-10T01:41:16;100297.71;;;18.94;10.03
64698;BME280;51124;53.394;-6.294;2023-05-10T01:44:00;100298.49;;;19.14;9.92
64698;BME280;51124;53.394;-6.294;2023-05-10T01:46:21;100299.75;;;18.23;10.14
64698;BME280;51124;53.394;-6.294;2023-05-10T01:48:55;100297.70;;;19.12;9.83
64698;BME280;51124;53.394;-6.294;2023-05-10T01:51:27;100296.29;;;20.51;10.27
64698;BME280;51124;53.394;-6.294;2023-05-10T01:54:00;100295.51;;;20.44;10.69
64698;BME280;51124;53.394;-6.294;2023-05-10T01:56:30;100291.07;;;19.34;10.64
64698;BME280;51124;53.394;-6.294;2023-05-10T01:58:58;100294.12;;;21.52;10.74
64698;BME280;51124;53.394;-6.294;2023-05-10T02:01:28;100290.96;;;21.34;11.30
64698;BME280;51124;53.394;-6.294;2023-05-10T02:03:54;100298.11;;;21.25;12.00
64698;BME280;51124;53.394;-6.294;2023-05-10T02:06:24;100296.77;;;20.86;12.06
64698;BME280;51124;53.394;-6.294;2023-05-10T02:08:54;100299.80;;;21.05;12.07
64698;BME280;51124;53.394;-6.294;2023-05-10T02:11:22;100296.29;;;21.70;12.22
64698;BME280;51124;53.394;-6.294;2023-05-10T02:13:51;100293.01;;;20.93;12.11
64698;BME280;51124;53.394;-6.294;2023-05-10T02:16:18;100293.91;;;20.60;12.30
64698;BME280;51124;53.394;-6.294;2023-05-10T02:18:52;100295.52;;;20.05;12.51
64698;BME280;51124;53.394;-6.294;2023-05-10T02:21:20;100300.25;;;19.67;12.61
64698;BME280;51124;53.394;-6.294;2023-05-10T02:23:49;100301.32;;;20.86;12.53
64698;BME280;51124;53.394;-6.294;2023-05-10T02:26:18;100301.57;;;20.71;12.51
64698;BME280;51124;53.394;-6.294;2023-05-10T02:28:48;100304.18;;;20.54;12.62
64698;BME280;51124;53.394;-6.294;2023-05-10T02:31:16;100304.02;;;21.04;12.47
64698;BME280;51124;53.394;-6.294;2023-05-10T02:33:46;100298.87;;;21.25;12.39
64698;BME280;51124;53.394;-6.294;2023-05-10T02:36:15;100303.97;;;21.22;12.62
64698;BME280;51124;53.394;-6.294;2023-05-10T02:38:44;100299.41;;;20.23;12.89
64698;BME280;51124;53.394;-6.294;2023-05-10T02:41:13;100300.00;;;20.98;12.65
64698;BME280;51124;53.394;-6.294;2023-05-10T02:43:42;100302.18;;;20.23;12.76
64698;BME280;51124;53.394;-6.294;2023-05-10T02:46:10;100297.30;;;20.62;12.76
64698;BME280;51124;53.394;-6.294;2023-05-10T02:48:37;100300.10;;;20.13;12.76
64698;BME280;51124;53.394;-6.294;2023-05-10T02:51:07;100305.99;;;17.99;12.52
64698;BME280;51124;53.394;-6.294;2023-05-10T02:53:36;100300.42;;;17.98;11.94
64698;BME280;51124;53.394;-6.294;2023-05-10T02:56:11;100298.36;;;17.65;11.66
64698;BME280;51124;53.394;-6.294;2023-05-10T02:58:39;100295.23;;;18.02;11.45
64698;BME280;51124;53.394;-6.294;2023-05-10T03:01:06;100294.95;;;18.11;11.05
64698;BME280;51124;53.394;-6.294;2023-05-10T03:03:33;100293.62;;;18.58;11.03
64698;BME280;51124;53.394;-6.294;2023-05-10T03:06:01;100294.73;;;18.72;10.64
64698;BME280;51124;53.394;-6.294;2023-05-10T03:08:28;100294.15;;;18.25;10.75
64698;BME280;51124;53.394;-6.294;2023-05-10T03:11:06;100294.88;;;17.71;10.83
64698;BME280;51124;53.394;-6.294;2023-05-10T03:13:31;100293.37;;;16.81;10.58
64698;BME280;51124;53.394;-6.294;2023-05-10T03:16:06;100294.34;;;18.60;10.42
64698;BME280;51124;53.394;-6.294;2023-05-10T03:18:39;100291.54;;;18.63;10.26
64698;BME280;51124;53.394;-6.294;2023-05-10T03:21:10;100292.98;;;18.67;10.27
64698;BME280;51124;53.394;-6.294;2023-05-10T03:23:43;100296.93;;;18.00;10.42
64698;BME280;51124;53.394;-6.294;2023-05-10T03:26:20;100294.75;;;18.47;10.20
64698;BME280;51124;53.394;-6.294;2023-05-10T03:28:39;100293.89;;;18.86;10.14
64698;BME280;51124;53.394;-6.294;2023-05-10T03:31:07;100289.03;;;18.08;10.23
64698;BME280;51124;53.394;-6.294;2023-05-10T03:33:35;100286.15;;;18.47;10.19
64698;BME280;51124;53.394;-6.294;2023-05-10T03:36:02;100283.16;;;18.61;10.28
64698;BME280;51124;53.394;-6.294;2023-05-10T03:38:30;100286.67;;;18.77;9.85
64698;BME280;51124;53.394;-6.294;2023-05-10T03:40:57;100283.83;;;17.82;10.22
64698;BME280;51124;53.394;-6.294;2023-05-10T03:43:24;100283.35;;;18.65;10.09
64698;BME280;51124;53.394;-6.294;2023-05-10T03:45:51;100282.82;;;17.99;10.26
64698;BME280;51124;53.394;-6.294;2023-05-10T03:48:18;100281.75;;;17.77;10.20
64698;BME280;51124;53.394;-6.294;2023-05-10T03:50:46;100284.85;;;18.14;10.14
64698;BME280;51124;53.394;-6.294;2023-05-10T03:53:13;100286.06;;;18.92;9.86
64698;BME280;51124;53.394;-6.294;2023-05-10T03:55:40;100282.41;;;19.02;9.93
64698;BME280;51124;53.394;-6.294;2023-05-10T03:58:10;100286.75;;;18.71;9.84
64698;BME280;51124;53.394;-6.294;2023-05-10T04:00:37;100286.67;;;17.93;9.98
64698;BME280;51124;53.394;-6.294;2023-05-10T04:03:05;100286.47;;;17.98;10.05
64698;BME280;51124;53.394;-6.294;2023-05-10T04:05:32;100290.85;;;17.90;10.14
64698;BME280;51124;53.394;-6.294;2023-05-10T04:07:59;100291.74;;;19.41;9.74
64698;BME280;51124;53.394;-6.294;2023-05-10T04:10:27;100286.34;;;17.91;10.11
64698;BME280;51124;53.394;-6.294;2023-05-10T04:12:54;100286.62;;;18.81;9.80
64698;BME280;51124;53.394;-6.294;2023-05-10T04:15:21;100281.17;;;18.30;10.11
64698;BME280;51124;53.394;-6.294;2023-05-10T04:17:49;100277.90;;;18.58;9.92
64698;BME280;51124;53.394;-6.294;2023-05-10T04:20:16;100278.91;;;18.15;10.39
64698;BME280;51124;53.394;-6.294;2023-05-10T04:22:43;100277.17;;;17.48;10.26
64698;BME280;51124;53.394;-6.294;2023-05-10T04:25:11;100274.59;;;18.28;10.22
64698;BME280;51124;53.394;-6.294;2023-05-10T04:27:38;100276.28;;;18.10;10.29
64698;BME280;51124;53.394;-6.294;2023-05-10T04:30:07;100280.13;;;18.06;10.28
64698;BME280;51124;53.394;-6.294;2023-05-10T04:32:34;100281.00;;;18.56;10.27
64698;BME280;51124;53.394;-6.294;2023-05-10T04:35:02;100285.32;;;18.29;10.18
64698;BME280;51124;53.394;-6.294;2023-05-10T04:37:29;100283.14;;;17.34;10.27
64698;BME280;51124;53.394;-6.294;2023-05-10T04:39:56;100276.65;;;17.54;10.14
64698;BME280;51124;53.394;-6.294;2023-05-10T04:42:23;100280.97;;;17.68;10.21
64698;BME280;51124;53.394;-6.294;2023-05-10T04:44:50;100279.42;;;17.68;10.11
64698;BME280;51124;53.394;-6.294;2023-05-10T04:47:18;100274.39;;;18.39;9.95
64698;BME280;51124;53.394;-6.294;2023-05-10T04:49:45;100280.48;;;20.45;10.25
64698;BME280;51124;53.394;-6.294;2023-05-10T04:52:12;100280.66;;;20.61;10.62
64698;BME280;51124;53.394;-6.294;2023-05-10T04:54:40;100275.37;;;18.18;10.82
64698;BME280;51124;53.394;-6.294;2023-05-10T04:57:07;100276.99;;;21.41;10.87
64698;BME280;51124;53.394;-6.294;2023-05-10T04:59:35;100276.08;;;21.67;11.39
64698;BME280;51124;53.394;-6.294;2023-05-10T05:02:03;100277.36;;;21.01;11.94
64698;BME280;51124;53.394;-6.294;2023-05-10T05:04:31;100282.01;;;20.11;12.05
64698;BME280;51124;53.394;-6.294;2023-05-10T05:06:58;100284.63;;;20.23;12.45
64698;BME280;51124;53.394;-6.294;2023-05-10T05:09:26;100285.90;;;20.64;12.27
64698;BME280;51124;53.394;-6.294;2023-05-10T05:11:53;100280.71;;;21.05;12.24
64698;BME280;51124;53.394;-6.294;2023-05-10T05:14:21;100281.83;;;20.56;12.33
64698;BME280;51124;53.394;-6.294;2023-05-10T05:16:48;100286.42;;;20.96;12.27
64698;BME280;51124;53.394;-6.294;2023-05-10T05:19:16;100287.79;;;20.06;12.48
64698;BME280;51124;53.394;-6.294;2023-05-10T05:21:43;100294.18;;;20.80;12.28
64698;BME280;51124;53.394;-6.294;2023-05-10T05:24:11;100289.16;;;20.28;12.56
64698;BME280;51124;53.394;-6.294;2023-05-10T05:26:38;100293.21;;;20.78;12.22
64698;BME280;51124;53.394;-6.294;2023-05-10T05:29:06;100291.37;;;21.00;12.32
64698;BME280;51124;53.394;-6.294;2023-05-10T05:31:34;100295.24;;;20.45;12.44
64698;BME280;51124;53.394;-6.294;2023-05-10T05:34:01;100294.26;;;20.30;12.58
64698;BME280;51124;53.394;-6.294;2023-05-10T05:36:29;100296.90;;;20.21;12.47
64698;BME280;51124;53.394;-6.294;2023-05-10T05:38:56;100294.28;;;20.14;12.71
64698;BME280;51124;53.394;-6.294;2023-05-10T05:41:24;100302.18;;;20.78;12.70
64698;BME280;51124;53.394;-6.294;2023-05-10T05:43:51;100303.82;;;20.21;12.62
64698;BME280;51124;53.394;-6.294;2023-05-10T05:46:18;100300.41;;;20.52;12.35
64698;BME280;51124;53.394;-6.294;2023-05-10T05:48:46;100300.03;;;17.65;12.39
64698;BME280;51124;53.394;-6.294;2023-05-10T05:51:13;100295.53;;;18.22;11.58
64698;BME280;51124;53.394;-6.294;2023-05-10T05:53:40;100301.38;;;18.05;11.47
64698;BME280;51124;53.394;-6.294;2023-05-10T05:56:07;100296.16;;;18.01;11.01
64698;BME280;51124;53.394;-6.294;2023-05-10T05:58:35;100297.12;;;19.16;10.67
64698;BME280;51124;53.394;-6.294;2023-05-10T06:01:02;100297.92;;;18.91;10.34
64698;BME280;51124;53.394;-6.294;2023-05-10T06:03:29;100297.73;;;19.18;10.36
64698;BME280;51124;53.394;-6.294;2023-05-10T06:05:56;100299.72;;;19.11;10.21
64698;BME280;51124;53.394;-6.294;2023-05-10T06:08:24;100297.30;;;18.88;10.08
64698;BME280;51124;53.394;-6.294;2023-05-10T06:10:51;100293.35;;;18.62;10.14
64698;BME280;51124;53.394;-6.294;2023-05-10T06:13:18;100299.43;;;19.74;9.73
64698;BME280;51124;53.394;-6.294;2023-05-10T06:15:45;100299.76;;;19.45;9.73
64698;BME280;51124;53.394;-6.294;2023-05-10T06:18:13;100296.42;;;19.04;9.89
64698;BME280;51124;53.394;-6.294;2023-05-10T06:20:40;100304.45;;;19.12;9.75
64698;BME280;51124;53.394;-6.294;2023-05-10T06:23:08;100305.85;;;19.63;9.56
64698;BME280;51124;53.394;-6.294;2023-05-10T06:25:35;100314.33;;;20.03;9.49
64698;BME280;51124;53.394;-6.294;2023-05-10T06:28:02;100314.32;;;20.10;9.35
64698;BME280;51124;53.394;-6.294;2023-05-10T06:30:30;100313.52;;;19.92;9.31
64698;BME280;51124;53.394;-6.294;2023-05-10T06:32:57;100320.14;;;19.62;9.38
64698;BME280;51124;53.394;-6.294;2023-05-10T06:35:25;100319.08;;;19.36;9.48
64698;BME280;51124;53.394;-6.294;2023-05-10T06:37:52;100327.02;;;20.17;9.33
64698;BME280;51124;53.394;-6.294;2023-05-10T06:40:20;100326.37;;;20.11;9.19
64698;BME280;51124;53.394;-6.294;2023-05-10T06:42:47;100329.39;;;20.17;9.26
64698;BME280;51124;53.394;-6.294;2023-05-10T06:45:15;100326.35;;;18.90;9.44
64698;BME280;51124;53.394;-6.294;2023-05-10T06:47:43;100331.46;;;19.55;9.23
64698;BME280;51124;53.394;-6.294;2023-05-10T06:50:11;100335.30;;;19.91;9.07
64698;BME280;51124;53.394;-6.294;2023-05-10T06:52:38;100333.32;;;19.96;9.23
64698;BME280;51124;53.394;-6.294;2023-05-10T06:55:06;100333.78;;;19.84;9.15
64698;BME280;51124;53.394;-6.294;2023-05-10T06:57:34;100331.82;;;19.72;9.23
64698;BME280;51124;53.394;-6.294;2023-05-10T07:00:01;100332.35;;;19.65;9.22
64698;BME280;51124;53.394;-6.294;2023-05-10T07:02:29;100332.99;;;20.07;9.10
64698;BME280;51124;53.394;-6.294;2023-05-10T07:04:56;100341.47;;;20.05;9.05
64698;BME280;51124;53.394;-6.294;2023-05-10T07:07:23;100343.09;;;20.07;9.09
64698;BME280;51124;53.394;-6.294;2023-05-10T07:09:51;100342.13;;;19.86;9.19
64698;BME280;51124;53.394;-6.294;2023-05-10T07:12:18;100343.99;;;19.98;9.22
64698;BME280;51124;53.394;-6.294;2023-05-10T07:14:45;100347.05;;;20.35;9.13
64698;BME280;51124;53.394;-6.294;2023-05-10T07:17:12;100340.43;;;20.37;9.05
64698;BME280;51124;53.394;-6.294;2023-05-10T07:19:39;100342.07;;;21.02;9.09
64698;BME280;51124;53.394;-6.294;2023-05-10T07:22:07;100344.62;;;20.80;9.06
64698;BME280;51124;53.394;-6.294;2023-05-10T07:24:34;100343.67;;;19.58;9.17
64698;BME280;51124;53.394;-6.294;2023-05-10T07:27:02;100345.34;;;20.81;8.97
64698;BME280;51124;53.394;-6.294;2023-05-10T07:29:29;100338.50;;;20.52;8.99
64698;BME280;51124;53.394;-6.294;2023-05-10T07:31:56;100342.66;;;21.05;8.93
64698;BME280;51124;53.394;-6.294;2023-05-10T07:34:24;100344.93;;;19.80;9.19
64698;BME280;51124;53.394;-6.294;2023-05-10T07:36:51;100340.84;;;20.21;8.94
64698;BME280;51124;53.394;-6.294;2023-05-10T07:39:19;100342.10;;;19.81;8.94
64698;BME280;51124;53.394;-6.294;2023-05-10T07:41:46;100335.48;;;19.60;8.95
64698;BME280;51124;53.394;-6.294;2023-05-10T07:44:14;100335.84;;;20.32;8.90
64698;BME280;51124;53.394;-6.294;2023-05-10T07:46:41;100329.74;;;20.37;8.90
64698;BME280;51124;53.394;-6.294;2023-05-10T07:49:08;100336.37;;;22.11;9.14
64698;BME280;51124;53.394;-6.294;2023-05-10T07:51:35;100334.38;;;22.25;9.46
64698;BME280;51124;53.394;-6.294;2023-05-10T07:54:03;100334.29;;;21.07;9.66
64698;BME280;51124;53.394;-6.294;2023-05-10T07:56:31;100329.94;;;22.65;9.68
64698;BME280;51124;53.394;-6.294;2023-05-10T07:58:59;100338.83;;;22.68;10.32
64698;BME280;51124;53.394;-6.294;2023-05-10T08:01:29;100338.47;;;22.48;10.52
64698;BME280;51124;53.394;-6.294;2023-05-10T08:03:57;100340.06;;;22.37;10.79
64698;BME280;51124;53.394;-6.294;2023-05-10T08:06:24;100341.43;;;22.91;10.89
64698;BME280;51124;53.394;-6.294;2023-05-10T08:08:52;100342.99;;;23.43;10.79
64698;BME280;51124;53.394;-6.294;2023-05-10T08:11:20;100348.00;;;22.27;10.95
64698;BME280;51124;53.394;-6.294;2023-05-10T08:13:48;100349.33;;;22.24;11.09
64698;BME280;51124;53.394;-6.294;2023-05-10T08:16:16;100354.89;;;21.99;11.04
64698;BME280;51124;53.394;-6.294;2023-05-10T08:18:46;100347.85;;;23.13;10.91
64698;BME280;51124;53.394;-6.294;2023-05-10T08:21:14;100346.84;;;23.70;10.81
64698;BME280;51124;53.394;-6.294;2023-05-10T08:23:42;100349.39;;;23.26;10.77
64698;BME280;51124;53.394;-6.294;2023-05-10T08:26:09;100349.38;;;22.93;10.87
64698;BME280;51124;53.394;-6.294;2023-05-10T08:28:36;100348.14;;;23.08;10.95
64698;BME280;51124;53.394;-6.294;2023-05-10T08:31:04;100346.85;;;22.91;11.00
64698;BME280;51124;53.394;-6.294;2023-05-10T08:33:30;100354.09;;;23.48;11.10
64698;BME280;51124;53.394;-6.294;2023-05-10T08:35:56;100357.34;;;23.28;11.06
64698;BME280;51124;53.394;-6.294;2023-05-10T08:38:21;100353.23;;;23.53;11.05
64698;BME280;51124;53.394;-6.294;2023-05-10T08:40:48;100355.53;;;22.63;11.26
64698;BME280;51124;53.394;-6.294;2023-05-10T08:43:14;100356.03;;;23.07;11.08
64698;BME280;51124;53.394;-6.294;2023-05-10T08:45:41;100355.40;;;22.79;11.15
64698;BME280;51124;53.394;-6.294;2023-05-10T08:48:08;100349.50;;;21.34;10.79
64698;BME280;51124;53.394;-6.294;2023-05-10T08:50:35;100353.81;;;21.50;10.24
64698;BME280;51124;53.394;-6.294;2023-05-10T08:53:03;100354.63;;;20.18;10.37
64698;BME280;51124;53.394;-6.294;2023-05-10T08:55:29;100352.44;;;20.09;9.86
64698;BME280;51124;53.394;-6.294;2023-05-10T08:57:54;100353.51;;;22.21;9.70
64698;BME280;51124;53.394;-6.294;2023-05-10T09:00:20;100357.91;;;21.19;9.87
64698;BME280;51124;53.394;-6.294;2023-05-10T09:02:50;100353.00;;;20.24;9.70
64698;BME280;51124;53.394;-6.294;2023-05-10T09:05:17;100358.12;;;21.58;9.21
64698;BME280;51124;53.394;-6.294;2023-05-10T09:07:44;100357.65;;;22.00;8.88
64698;BME280;51124;53.394;-6.294;2023-05-10T09:10:12;100353.66;;;21.82;8.86
64698;BME280;51124;53.394;-6.294;2023-05-10T09:12:40;100353.39;;;22.45;8.66
64698;BME280;51124;53.394;-6.294;2023-05-10T09:15:09;100352.26;;;22.45;8.42
64698;BME280;51124;53.394;-6.294;2023-05-10T09:17:37;100354.35;;;21.22;8.73
64698;BME280;51124;53.394;-6.294;2023-05-10T09:20:06;100353.98;;;21.58;8.82
64698;BME280;51124;53.394;-6.294;2023-05-10T09:22:34;100357.09;;;21.73;8.72
64698;BME280;51124;53.394;-6.294;2023-05-10T09:25:10;100359.27;;;22.20;8.52
64698;BME280;51124;53.394;-6.294;2023-05-10T09:27:28;100350.98;;;22.25;8.44
64698;BME280;51124;53.394;-6.294;2023-05-10T09:29:56;100352.97;;;22.35;8.37
64698;BME280;51124;53.394;-6.294;2023-05-10T09:32:25;100350.88;;;22.67;8.29
64698;BME280;51124;53.394;-6.294;2023-05-10T09:34:52;100351.95;;;21.73;8.43
64698;BME280;51124;53.394;-6.294;2023-05-10T09:37:20;100355.61;;;21.86;8.39
64698;BME280;51124;53.394;-6.294;2023-05-10T09:39:45;100360.15;;;22.23;8.07
64698;BME280;51124;53.394;-6.294;2023-05-10T09:42:13;100361.94;;;21.77;8.35
64698;BME280;51124;53.394;-6.294;2023-05-10T09:44:45;100359.94;;;22.23;8.23
64698;BME280;51124;53.394;-6.294;2023-05-10T09:47:16;100368.31;;;22.08;8.26
64698;BME280;51124;53.394;-6.294;2023-05-10T09:49:44;100365.77;;;21.60;8.35
64698;BME280;51124;53.394;-6.294;2023-05-10T09:52:11;100370.53;;;22.03;8.36
64698;BME280;51124;53.394;-6.294;2023-05-10T09:54:39;100370.23;;;21.57;8.44
64698;BME280;51124;53.394;-6.294;2023-05-10T09:57:20;100372.43;;;22.73;8.09
64698;BME280;51124;53.394;-6.294;2023-05-10T09:59:44;100361.54;;;22.21;8.06
64698;BME280;51124;53.394;-6.294;2023-05-10T10:02:11;100357.17;;;23.46;7.78
64698;BME280;51124;53.394;-6.294;2023-05-10T10:04:41;100364.11;;;23.64;7.78
64698;BME280;51124;53.394;-6.294;2023-05-10T10:07:08;100359.45;;;24.10;7.71
64698;BME280;51124;53.394;-6.294;2023-05-10T10:09:36;100359.07;;;23.22;7.85
64698;BME280;51124;53.394;-6.294;2023-05-10T10:12:04;100361.59;;;24.59;7.57
64698;BME280;51124;53.394;-6.294;2023-05-10T10:14:31;100353.82;;;24.82;7.28
64698;BME280;51124;53.394;-6.294;2023-05-10T10:17:00;100359.52;;;23.40;7.55
64698;BME280;51124;53.394;-6.294;2023-05-10T10:19:27;100362.10;;;23.71;7.72
64698;BME280;51124;53.394;-6.294;2023-05-10T10:21:55;100371.45;;;22.67;8.24
64698;BME280;51124;53.394;-6.294;2023-05-10T10:24:22;100361.23;;;23.07;7.92
64698;BME280;51124;53.394;-6.294;2023-05-10T10:26:50;100369.49;;;23.06;7.76
64698;BME280;51124;53.394;-6.294;2023-05-10T10:29:23;100361.28;;;23.77;7.66
64698;BME280;51124;53.394;-6.294;2023-05-10T10:32:01;100356.06;;;24.80;7.27
64698;BME280;51124;53.394;-6.294;2023-05-10T10:34:27;100360.86;;;23.18;7.60
64698;BME280;51124;53.394;-6.294;2023-05-10T10:36:56;100361.44;;;24.38;7.60
64698;BME280;51124;53.394;-6.294;2023-05-10T10:39:24;100367.28;;;22.14;8.24
64698;BME280;51124;53.394;-6.294;2023-05-10T10:41:53;100363.90;;;23.51;7.76
64698;BME280;51124;53.394;-6.294;2023-05-10T10:44:36;100358.20;;;23.06;7.79
64698;BME280;51124;53.394;-6.294;2023-05-10T10:47:02;100353.65;;;22.97;7.72
64698;BME280;51124;53.394;-6.294;2023-05-10T10:49:19;100357.55;;;24.49;7.74
64698;BME280;51124;53.394;-6.294;2023-05-10T10:52:20;100367.76;;;24.97;8.09
64698;BME280;51124;53.394;-6.294;2023-05-10T10:54:28;100367.86;;;23.49;8.78
64698;BME280;51124;53.394;-6.294;2023-05-10T10:56:46;100362.33;;;22.05;8.88
64698;BME280;51124;53.394;-6.294;2023-05-10T10:59:28;100369.23;;;26.27;8.62
64698;BME280;51124;53.394;-6.294;2023-05-10T11:01:45;100369.42;;;25.96;9.12
64698;BME280;51124;53.394;-6.294;2023-05-10T11:04:19;100366.16;;;25.67;9.24
64698;BME280;51124;53.394;-6.294;2023-05-10T11:06:46;100365.44;;;25.35;9.58
64698;BME280;51124;53.394;-6.294;2023-05-10T11:09:14;100370.20;;;26.30;9.31
64698;BME280;51124;53.394;-6.294;2023-05-10T11:11:57;100370.83;;;26.73;9.09
64698;BME280;51124;53.394;-6.294;2023-05-10T11:14:13;100369.25;;;25.77;9.34
64698;BME280;51124;53.394;-6.294;2023-05-10T11:16:43;100366.02;;;26.18;9.32
64698;BME280;51124;53.394;-6.294;2023-05-10T11:19:10;100375.05;;;25.73;9.24
64698;BME280;51124;53.394;-6.294;2023-05-10T11:21:46;100377.07;;;26.14;9.27
64698;BME280;51124;53.394;-6.294;2023-05-10T11:24:09;100366.78;;;25.99;9.62
64698;BME280;51124;53.394;-6.294;2023-05-10T11:26:31;100369.12;;;24.38;9.88
64698;BME280;51124;53.394;-6.294;2023-05-10T11:28:57;100367.69;;;25.10;9.91
64698;BME280;51124;53.394;-6.294;2023-05-10T11:31:23;100371.76;;;23.66;10.46
64698;BME280;51124;53.394;-6.294;2023-05-10T11:33:50;100369.90;;;25.16;9.90
64698;BME280;51124;53.394;-6.294;2023-05-10T11:36:17;100375.77;;;24.85;9.89
64698;BME280;51124;53.394;-6.294;2023-05-10T11:38:43;100374.73;;;24.00;10.38
64698;BME280;51124;53.394;-6.294;2023-05-10T11:41:09;100375.98;;;24.69;9.97
64698;BME280;51124;53.394;-6.294;2023-05-10T11:43:38;100369.27;;;25.36;9.72
64698;BME280;51124;53.394;-6.294;2023-05-10T11:46:07;100365.74;;;26.61;9.40
64698;BME280;51124;53.394;-6.294;2023-05-10T11:48:34;100367.46;;;25.28;9.36
64698;BME280;51124;53.394;-6.294;2023-05-10T11:51:02;100363.84;;;25.13;9.08
64698;BME280;51124;53.394;-6.294;2023-05-10T11:53:30;100357.32;;;23.86;8.66
64698;BME280;51124;53.394;-6.294;2023-05-10T11:56:05;100362.86;;;24.12;8.59
64698;BME280;51124;53.394;-6.294;2023-05-10T11:58:32;100365.64;;;22.62;8.67
64698;BME280;51124;53.394;-6.294;2023-05-10T12:01:00;100365.09;;;23.80;8.43
64698;BME280;51124;53.394;-6.294;2023-05-10T12:03:28;100374.32;;;22.21;8.76
64698;BME280;51124;53.394;-6.294;2023-05-10T12:05:56;100371.58;;;22.71;8.35
64698;BME280;51124;53.394;-6.294;2023-05-10T12:08:25;100375.36;;;21.90;8.65
64698;BME280;51124;53.394;-6.294;2023-05-10T12:10:53;100373.73;;;23.34;8.25
64698;BME280;51124;53.394;-6.294;2023-05-10T12:13:21;100370.02;;;22.02;8.38
64698;BME280;51124;53.394;-6.294;2023-05-10T12:15:49;100367.63;;;23.93;7.92
64698;BME280;51124;53.394;-6.294;2023-05-10T12:18:22;100363.78;;;23.20;7.92
64698;BME280;51124;53.394;-6.294;2023-05-10T12:20:49;100367.41;;;23.32;7.85
64698;BME280;51124;53.394;-6.294;2023-05-10T12:23:18;100376.55;;;23.44;7.74
64698;BME280;51124;53.394;-6.294;2023-05-10T12:25:46;100376.68;;;21.81;8.24
64698;BME280;51124;53.394;-6.294;2023-05-10T12:28:14;100375.15;;;22.23;8.31
64698;BME280;51124;53.394;-6.294;2023-05-10T12:30:41;100385.68;;;22.35;8.20
64698;BME280;51124;53.394;-6.294;2023-05-10T12:33:11;100379.82;;;21.70;8.33
64698;BME280;51124;53.394;-6.294;2023-05-10T12:35:47;100384.47;;;21.95;8.31
64698;BME280;51124;53.394;-6.294;2023-05-10T12:38:25;100388.17;;;22.55;8.23
64698;BME280;51124;53.394;-6.294;2023-05-10T12:40:32;100390.60;;;21.44;8.61
64698;BME280;51124;53.394;-6.294;2023-05-10T12:43:00;100390.19;;;21.71;8.52
64698;BME280;51124;53.394;-6.294;2023-05-10T12:45:27;100393.10;;;22.00;8.65
64698;BME280;51124;53.394;-6.294;2023-05-10T12:47:54;100399.26;;;21.83;8.73